Time;durP1;ratioP1;P1;durP2;ratioP2;P2;SDS_P1;SDS_P2;PMS_P1;PMS_P2;Temp;Humidity;BMP_temperature;BMP_pressure;BME280_temperature;BME280_humidity;BME280_pressure;Samples;Min_cycle;Max_cycle;Signal;HPM_P1;HPM_P2
2022/08/29 00:02:16;;;;;;;67.70;3.10;;;19.80;1.00;;;;;;5071240;28;20175;-78
2022/08/29 00:04:41;;;;;;;69.73;3.50;;;19.80;1.00;;;;;;5070991;28;20171;-78
2022/08/29 00:07:07;;;;;;;67.70;2.87;;;19.70;1.00;;;;;;5088578;28;20188;-78
2022/08/29 00:09:33;;;;;;;71.53;3.73;;;19.60;1.00;;;;;;5089334;28;20168;-78
2022/08/29 00:11:58;;;;;;;67.77;3.10;;;19.60;1.00;;;;;;5070644;28;20170;-79
2022/08/29 00:14:24;;;;;;;68.87;3.33;;;19.60;1.00;;;;;;5088484;28;20195;-78
2022/08/29 00:16:50;;;;;;;68.93;3.10;;;19.60;1.00;;;;;;5070604;28;20185;-78
2022/08/29 00:19:16;;;;;;;70.10;3.27;;;19.60;1.00;;;;;;5088544;28;20214;-78
2022/08/29 00:21:41;;;;;;;69.80;4.50;;;19.60;1.00;;;;;;5088505;28;20518;-78
2022/08/29 00:24:07;;;;;;;67.00;3.10;;;19.60;1.00;;;;;;5088869;28;20175;-78
2022/08/29 00:26:34;;;;;;;67.33;3.30;;;19.50;1.00;;;;;;5088644;28;20599;-78
2022/08/29 00:29:00;;;;;;;69.17;3.60;;;19.40;1.00;;;;;;5089294;28;20170;-79
2022/08/29 00:31:26;;;;;;;67.57;2.80;;;19.40;1.00;;;;;;5070499;28;20446;-78
2022/08/29 00:33:52;;;;;;;66.90;3.27;;;19.30;1.00;;;;;;5088521;28;20448;-78
2022/08/29 00:36:17;;;;;;;67.40;3.40;;;19.30;1.00;;;;;;5088283;28;20809;-78
2022/08/29 00:38:43;;;;;;;67.30;3.20;;;19.20;1.00;;;;;;5087800;28;20173;-78
2022/08/29 00:41:09;;;;;;;67.30;3.30;;;19.10;1.00;;;;;;5070704;28;20180;-78
2022/08/29 00:43:36;;;;;;;66.50;3.07;;;19.10;1.00;;;;;;5088295;28;20200;-78
2022/08/29 00:46:40;;;;;;;69.07;3.67;;;19.10;1.00;;;;;;5087913;28;20211;-78
2022/08/29 00:49:11;;;;;;;69.37;4.67;;;19.10;1.00;;;;;;5084240;28;20422;-78
2022/08/29 00:51:38;;;;;;;67.60;3.47;;;19.00;1.00;;;;;;5088456;28;20885;-78
2022/08/29 00:54:10;;;;;;;66.97;3.57;;;18.90;1.00;;;;;;5069959;28;20453;-78
2022/08/29 00:56:38;;;;;;;69.33;3.47;;;18.90;1.00;;;;;;5088267;28;20426;-78
2022/08/29 00:59:31;;;;;;;66.83;3.23;;;18.80;1.00;;;;;;5070267;28;20478;-78
2022/08/29 01:01:58;;;;;;;67.77;3.70;;;18.80;1.00;;;;;;5087776;28;20406;-78
2022/08/29 01:04:24;;;;;;;67.37;3.70;;;18.70;1.00;;;;;;5086647;28;20484;-78
2022/08/29 01:06:51;;;;;;;68.63;3.60;;;18.70;1.00;;;;;;5070819;28;20441;-78
2022/08/29 01:09:16;;;;;;;69.77;4.10;;;18.70;1.00;;;;;;5090886;28;20160;-78
2022/08/29 01:14:27;;;;;;;67.03;3.50;;;18.60;1.00;;;;;;5091736;28;20205;-78
2022/08/29 01:16:57;;;;;;;71.47;3.33;;;18.50;1.00;;;;;;5073632;28;20436;-78
2022/08/29 01:20:07;;;;;;;69.93;4.03;;;18.50;1.00;;;;;;5091338;28;20409;-79
2022/08/29 01:22:35;;;;;;;67.37;3.53;;;18.50;1.00;;;;;;5076132;28;20428;-78
2022/08/29 01:25:06;;;;;;;68.47;3.57;;;18.50;1.00;;;;;;5092016;28;20517;-78
2022/08/29 01:27:35;;;;;;;70.00;4.30;;;18.40;1.00;;;;;;5091250;28;20445;-79
2022/08/29 01:30:01;;;;;;;67.77;3.70;;;18.40;1.00;;;;;;5091572;28;20404;-78
2022/08/29 01:32:27;;;;;;;68.60;4.50;;;18.40;1.00;;;;;;5073556;28;20415;-78
2022/08/29 01:34:53;;;;;;;72.67;4.53;;;18.30;1.00;;;;;;5091058;28;20176;-78
2022/08/29 01:37:19;;;;;;;68.73;3.87;;;18.20;1.00;;;;;;5091734;28;20379;-78
2022/08/29 01:39:45;;;;;;;68.87;4.00;;;18.20;1.00;;;;;;5091570;28;20406;-78
2022/08/29 01:42:15;;;;;;;76.60;3.70;;;18.20;1.00;;;;;;5091166;28;20426;-78
2022/08/29 01:44:46;;;;;;;70.07;3.70;;;18.10;1.00;;;;;;5090785;28;20503;-78
2022/08/29 01:47:12;;;;;;;68.90;3.80;;;18.10;1.00;;;;;;5072600;28;20794;-78
2022/08/29 01:49:37;;;;;;;66.70;3.67;;;18.00;1.00;;;;;;5090754;28;20413;-79
2022/08/29 01:52:04;;;;;;;69.40;4.33;;;18.00;1.00;;;;;;5072408;28;20172;-78
2022/08/29 01:54:30;;;;;;;67.90;3.77;;;18.00;1.00;;;;;;5091437;28;20172;-78
2022/08/29 01:56:56;;;;;;;71.80;4.17;;;17.90;1.00;;;;;;5073574;28;20434;-78
2022/08/29 01:59:25;;;;;;;67.67;3.43;;;17.90;1.00;;;;;;5072995;28;20197;-78
2022/08/29 02:02:10;;;;;;;68.10;4.10;;;17.90;1.00;;;;;;5073200;28;20263;-79
2022/08/29 02:04:35;;;;;;;68.30;3.70;;;17.80;1.00;;;;;;5091230;28;20463;-78
2022/08/29 02:07:01;;;;;;;67.07;3.87;;;17.70;1.00;;;;;;5090675;28;20426;-78
2022/08/29 02:09:28;;;;;;;68.53;3.70;;;17.70;1.00;;;;;;5090984;28;20172;-78
2022/08/29 02:11:56;;;;;;;71.80;4.00;;;17.70;1.00;;;;;;5090151;28;20399;-78
2022/08/29 02:14:23;;;;;;;70.37;4.20;;;17.70;1.00;;;;;;5072750;28;20925;-78
2022/08/29 02:16:49;;;;;;;67.00;3.77;;;17.70;1.00;;;;;;5090144;28;20429;-78
2022/08/29 02:19:16;;;;;;;69.17;5.90;;;17.60;1.00;;;;;;5072661;28;20415;-78
2022/08/29 02:21:45;;;;;;;67.40;4.77;;;17.60;1.00;;;;;;5090440;28;20168;-80
2022/08/29 02:24:11;;;;;;;69.47;5.23;;;17.50;1.00;;;;;;5072913;28;20470;-78
2022/08/29 02:26:37;;;;;;;67.40;5.17;;;17.50;1.00;;;;;;5089909;28;20419;-79
2022/08/29 02:29:03;;;;;;;71.70;7.40;;;17.50;1.00;;;;;;5072288;28;20407;-80
2022/08/29 02:31:28;;;;;;;68.90;6.03;;;17.50;1.00;;;;;;5090220;28;20218;-78
2022/08/29 02:33:55;;;;;;;68.07;6.67;;;17.50;1.00;;;;;;5088896;28;20402;-79
2022/08/29 02:36:21;;;;;;;74.63;7.03;;;17.40;1.00;;;;;;5090101;28;20732;-78
2022/08/29 02:38:47;;;;;;;69.47;8.23;;;17.40;1.00;;;;;;5089835;28;20456;-78
2022/08/29 02:41:14;;;;;;;75.03;10.40;;;17.30;1.00;;;;;;5072033;28;20418;-79
2022/08/29 02:43:40;;;;;;;68.90;9.00;;;17.30;1.00;;;;;;5089891;28;20486;-80
2022/08/29 02:46:06;;;;;;;71.17;10.10;;;17.30;1.00;;;;;;5072700;28;20933;-78
2022/08/29 02:48:32;;;;;;;70.37;12.27;;;17.30;1.00;;;;;;5071958;28;20407;-79
2022/08/29 02:50:58;;;;;;;70.93;12.17;;;17.20;1.50;;;;;;5089257;28;20412;-79
2022/08/29 02:53:25;;;;;;;73.97;10.60;;;17.20;2.30;;;;;;5089900;28;20402;-78
2022/08/29 02:55:52;;;;;;;69.80;10.90;;;17.20;3.00;;;;;;5089687;28;20638;-79
2022/08/29 02:58:21;;;;;;;71.23;13.20;;;17.20;3.50;;;;;;5071512;28;20457;-79
2022/08/29 03:00:47;;;;;;;73.03;13.37;;;17.20;4.40;;;;;;5071429;28;20470;-79
2022/08/29 03:03:13;;;;;;;71.60;15.00;;;17.10;5.60;;;;;;5090316;28;20924;-78
2022/08/29 03:05:39;;;;;;;71.50;11.47;;;17.20;5.20;;;;;;5071937;28;20511;-78
2022/08/29 03:08:08;;;;;;;70.70;13.87;;;17.10;4.70;;;;;;5088875;28;20184;-78
2022/08/29 03:10:35;;;;;;;74.40;16.13;;;17.10;7.30;;;;;;5071283;28;20172;-78
2022/08/29 03:13:01;;;;;;;71.17;12.87;;;17.00;6.70;;;;;;5088669;28;20394;-79
2022/08/29 03:15:27;;;;;;;70.80;13.67;;;17.00;7.00;;;;;;5088523;28;20913;-78
2022/08/29 03:17:53;;;;;;;70.47;15.30;;;17.00;7.60;;;;;;5089375;28;20418;-79
2022/08/29 03:20:22;;;;;;;70.87;14.43;;;17.00;8.20;;;;;;5089672;28;20417;-78
2022/08/29 03:22:49;;;;;;;71.07;14.37;;;17.00;8.50;;;;;;5089082;28;20413;-78
2022/08/29 03:25:15;;;;;;;71.07;12.97;;;16.90;9.80;;;;;;5071557;28;20541;-79
2022/08/29 03:27:41;;;;;;;71.83;18.50;;;16.90;10.10;;;;;;5071019;28;20422;-78
2022/08/29 03:30:10;;;;;;;71.77;19.20;;;16.90;12.10;;;;;;5089377;28;20456;-79
2022/08/29 03:32:37;;;;;;;75.90;20.47;;;16.80;13.00;;;;;;5089121;28;20410;-78
2022/08/29 03:35:04;;;;;;;73.60;18.27;;;16.80;14.00;;;;;;5089040;28;20481;-78
2022/08/29 03:37:30;;;;;;;71.30;15.77;;;16.80;15.10;;;;;;5089320;28;20422;-78
2022/08/29 03:39:55;;;;;;;71.80;17.47;;;16.80;15.00;;;;;;5071225;28;20417;-78
2022/08/29 03:42:21;;;;;;;76.63;16.60;;;16.70;17.60;;;;;;5089398;28;20189;-78
2022/08/29 03:44:47;;;;;;;72.60;15.83;;;16.70;17.20;;;;;;5070463;28;20199;-79
2022/08/29 03:47:13;;;;;;;75.27;18.77;;;16.70;18.00;;;;;;5070880;28;20214;-79
2022/08/29 03:49:39;;;;;;;69.00;13.27;;;16.60;20.10;;;;;;5070827;28;20172;-78
2022/08/29 03:52:08;;;;;;;69.90;13.67;;;16.60;20.80;;;;;;5070684;28;20417;-78
2022/08/29 03:54:34;;;;;;;73.27;13.03;;;16.60;22.20;;;;;;5069312;28;20414;-79
2022/08/29 03:57:00;;;;;;;71.70;9.80;;;16.50;22.20;;;;;;5071198;28;20430;-78
2022/08/29 03:59:26;;;;;;;70.07;11.17;;;16.50;23.90;;;;;;5070344;28;21054;-78
2022/08/29 04:01:52;;;;;;;71.77;12.23;;;16.50;24.90;;;;;;5070900;28;20172;-78
2022/08/29 04:07:05;;;;;;;68.80;11.97;;;16.50;23.70;;;;;;5088498;28;20195;-78
2022/08/29 04:09:31;;;;;;;70.90;13.63;;;16.50;23.40;;;;;;5071472;28;20432;-78
2022/08/29 04:11:57;;;;;;;70.70;12.57;;;16.60;22.60;;;;;;5088524;28;20402;-78
2022/08/29 04:14:24;;;;;;;70.83;12.87;;;16.50;23.80;;;;;;5088224;28;20844;-79
2022/08/29 04:16:50;;;;;;;71.70;11.87;;;16.50;23.50;;;;;;5070727;28;20445;-78
2022/08/29 04:19:20;;;;;;;72.60;11.67;;;16.50;23.50;;;;;;5088179;28;20763;-78
2022/08/29 04:21:47;;;;;;;71.73;11.10;;;16.50;23.50;;;;;;5088941;28;20378;-79
2022/08/29 04:24:14;;;;;;;70.37;10.37;;;16.50;24.40;;;;;;5088536;28;20499;-78
2022/08/29 04:26:40;;;;;;;70.67;9.53;;;16.40;24.80;;;;;;5088313;28;20937;-78
2022/08/29 04:29:11;;;;;;;70.07;12.67;;;16.40;25.50;;;;;;5070912;28;20403;-78
2022/08/29 04:31:38;;;;;;;69.97;10.97;;;16.30;25.70;;;;;;5155079;22;20597;-83
2022/08/29 04:34:06;;;;;;;69.50;10.47;;;16.30;26.30;;;;;;5076329;28;20437;-84
2022/08/29 04:36:36;;;;;;;70.70;11.33;;;16.30;25.60;;;;;;5076253;28;20973;-83
2022/08/29 04:39:04;;;;;;;70.73;12.60;;;16.40;25.20;;;;;;5076841;28;20435;-84
2022/08/29 04:41:30;;;;;;;67.97;10.53;;;16.30;25.10;;;;;;5080429;28;20417;-83
2022/08/29 04:43:56;;;;;;;75.97;10.90;;;16.30;25.40;;;;;;5078184;28;20450;-84
2022/08/29 04:46:22;;;;;;;71.43;11.80;;;16.30;27.00;;;;;;5080085;28;20462;-83
2022/08/29 04:48:47;;;;;;;73.90;10.33;;;16.20;27.70;;;;;;5084644;28;20167;-84
2022/08/29 04:51:13;;;;;;;68.47;10.60;;;16.20;27.40;;;;;;5080162;28;20405;-83
2022/08/29 04:53:39;;;;;;;67.93;10.00;;;16.20;28.70;;;;;;5065624;28;20176;-84
2022/08/29 04:56:08;;;;;;;69.07;8.90;;;16.10;29.70;;;;;;5079334;28;20258;-83
2022/08/29 04:58:35;;;;;;;71.80;10.70;;;16.20;29.40;;;;;;5079106;28;20796;-83
2022/08/29 05:01:02;;;;;;;68.87;10.10;;;16.20;29.60;;;;;;5079837;28;20402;-84
2022/08/29 05:03:28;;;;;;;69.93;11.00;;;16.20;29.60;;;;;;5083995;28;20398;-83
2022/08/29 05:06:00;;;;;;;74.80;11.07;;;16.20;29.50;;;;;;5065957;28;20492;-84
2022/08/29 05:08:27;;;;;;;73.40;10.40;;;16.20;29.50;;;;;;5065251;28;20493;-83
2022/08/29 05:10:52;;;;;;;71.43;10.60;;;16.20;29.50;;;;;;5079889;28;20409;-84
2022/08/29 05:13:18;;;;;;;69.13;8.77;;;16.20;29.50;;;;;;5083913;28;20410;-83
2022/08/29 05:15:44;;;;;;;69.20;10.17;;;16.20;29.30;;;;;;5079941;28;20164;-83
2022/08/29 05:18:12;;;;;;;68.00;8.50;;;16.30;28.40;;;;;;5079911;28;20425;-84
2022/08/29 05:20:41;;;;;;;69.97;10.10;;;16.20;29.00;;;;;;5083306;28;20402;-83
2022/08/29 05:23:08;;;;;;;72.00;10.13;;;16.30;29.00;;;;;;5061976;28;20841;-84
2022/08/29 05:25:34;;;;;;;70.40;8.90;;;16.30;29.60;;;;;;5079455;28;20442;-84
2022/08/29 05:28:00;;;;;;;69.17;9.20;;;16.30;30.90;;;;;;5079079;28;20430;-83
2022/08/29 05:30:27;;;;;;;75.60;9.30;;;16.30;30.60;;;;;;5079455;28;20909;-83
2022/08/29 05:32:53;;;;;;;71.30;10.60;;;16.30;31.00;;;;;;5061850;28;20156;-83
2022/08/29 05:35:20;;;;;;;70.77;9.47;;;16.30;31.90;;;;;;5079047;28;20406;-83
2022/08/29 05:37:45;;;;;;;69.77;9.00;;;16.30;33.50;;;;;;5082644;28;20422;-84
2022/08/29 05:40:11;;;;;;;69.93;8.67;;;16.30;34.50;;;;;;5081852;28;20401;-83
2022/08/29 05:42:37;;;;;;;71.10;8.10;;;16.30;34.70;;;;;;5079267;28;20406;-83
2022/08/29 05:45:04;;;;;;;68.70;7.53;;;16.40;34.30;;;;;;5081935;28;20203;-84
2022/08/29 05:47:30;;;;;;;67.67;8.10;;;16.40;35.60;;;;;;5081327;28;20190;-83
2022/08/29 05:49:56;;;;;;;68.30;7.30;;;16.40;36.10;;;;;;5082559;28;21006;-84
2022/08/29 05:52:22;;;;;;;66.87;7.57;;;16.50;35.50;;;;;;5081971;28;20401;-84
2022/08/29 05:54:51;;;;;;;72.53;8.30;;;16.50;37.90;;;;;;5081680;28;20410;-84
2022/08/29 05:57:20;;;;;;;69.83;7.00;;;16.60;37.80;;;;;;5082582;28;20775;-83
2022/08/29 05:59:50;;;;;;;69.67;7.07;;;16.60;38.00;;;;;;5082026;28;20413;-83
2022/08/29 06:02:17;;;;;;;73.07;7.93;;;16.70;37.20;;;;;;5082307;28;20385;-84
2022/08/29 06:04:43;;;;;;;74.73;9.00;;;16.70;36.80;;;;;;5078812;28;20491;-84
2022/08/29 06:07:10;;;;;;;72.53;8.10;;;16.70;36.80;;;;;;5082071;28;20422;-83
2022/08/29 06:09:36;;;;;;;72.20;8.57;;;16.70;38.00;;;;;;5082695;28;20395;-83
2022/08/29 06:12:02;;;;;;;74.00;7.80;;;16.70;37.00;;;;;;5079572;28;20918;-83
2022/08/29 06:14:28;;;;;;;73.87;7.03;;;16.80;37.20;;;;;;5082243;28;20402;-83
2022/08/29 06:16:55;;;;;;;70.33;7.23;;;16.80;37.80;;;;;;5081283;28;20785;-83
2022/08/29 06:19:20;;;;;;;71.20;8.17;;;16.80;38.30;;;;;;5078090;28;20171;-83
2022/08/29 06:21:46;;;;;;;69.20;8.70;;;16.80;37.00;;;;;;5081687;28;20406;-83
2022/08/29 06:24:12;;;;;;;71.23;7.30;;;16.80;38.70;;;;;;5081730;28;20183;-83
2022/08/29 06:26:38;;;;;;;71.90;7.10;;;16.90;39.10;;;;;;5082118;28;20723;-83
2022/08/29 06:29:08;;;;;;;68.90;7.50;;;16.90;38.30;;;;;;5081224;28;20412;-83
2022/08/29 06:31:34;;;;;;;68.10;8.10;;;16.90;40.30;;;;;;5081825;28;20421;-83
2022/08/29 06:34:04;;;;;;;70.40;7.63;;;17.00;39.30;;;;;;5085950;28;20422;-85
2022/08/29 06:36:30;;;;;;;69.90;8.07;;;17.10;38.80;;;;;;5085832;28;20925;-85
2022/08/29 06:38:59;;;;;;;77.07;8.20;;;17.10;39.80;;;;;;5086159;28;20406;-85
2022/08/29 06:41:25;;;;;;;72.50;9.33;;;17.20;37.20;;;;;;5085498;28;20399;-85
2022/08/29 06:43:53;;;;;;;71.50;7.30;;;17.30;35.20;;;;;;5081189;28;20836;-85
2022/08/29 06:46:31;;;;;;;67.97;7.17;;;17.20;37.50;;;;;;5081400;28;20424;-85
2022/08/29 06:48:58;;;;;;;71.90;7.80;;;17.20;38.20;;;;;;5081794;28;20371;-85
2022/08/29 06:51:24;;;;;;;69.93;7.00;;;17.30;37.80;;;;;;5081522;28;20414;-85
2022/08/29 06:53:50;;;;;;;69.33;8.50;;;17.20;41.70;;;;;;5065973;28;20398;-85
2022/08/29 06:56:17;;;;;;;70.17;6.97;;;17.20;43.60;;;;;;5062770;28;20403;-85
2022/08/29 06:58:42;;;;;;;71.00;8.83;;;17.10;45.00;;;;;;5080481;28;20491;-85
2022/08/29 07:01:14;;;;;;;76.07;9.60;;;17.20;44.70;;;;;;5080357;28;20781;-85
2022/08/29 07:03:41;;;;;;;69.87;8.43;;;17.30;44.60;;;;;;5062307;28;20171;-85
2022/08/29 07:06:07;;;;;;;71.80;7.40;;;17.20;45.10;;;;;;5079448;28;20402;-85
2022/08/29 07:08:34;;;;;;;71.93;8.30;;;17.30;44.80;;;;;;5080281;28;20400;-85
2022/08/29 07:11:01;;;;;;;72.60;7.57;;;17.30;42.70;;;;;;5079622;28;20399;-85
2022/08/29 07:13:27;;;;;;;72.60;7.87;;;17.40;41.00;;;;;;5079333;28;20428;-85
2022/08/29 07:15:56;;;;;;;72.67;7.37;;;17.50;38.90;;;;;;5079603;28;20403;-85
2022/08/29 07:18:22;;;;;;;71.30;7.33;;;17.30;41.30;;;;;;5079825;28;20426;-85
2022/08/29 07:20:48;;;;;;;71.60;7.40;;;17.30;42.10;;;;;;5062033;28;20422;-85
2022/08/29 07:23:14;;;;;;;71.33;7.53;;;17.30;41.70;;;;;;5061881;28;20182;-85
2022/08/29 07:25:40;;;;;;;70.77;7.70;;;17.40;40.50;;;;;;5081140;28;20496;-85
2022/08/29 07:28:06;;;;;;;68.20;7.43;;;17.40;39.70;;;;;;5062610;28;20801;-85
2022/08/29 07:30:32;;;;;;;76.40;8.07;;;17.40;38.90;;;;;;5079382;28;20233;-85
2022/08/29 07:32:58;;;;;;;71.67;8.57;;;17.40;39.50;;;;;;5061474;28;20422;-85
2022/08/29 07:35:25;;;;;;;68.10;7.83;;;17.50;38.50;;;;;;5062402;28;20539;-85
2022/08/29 07:37:54;;;;;;;85.70;8.30;;;17.50;42.00;;;;;;5079500;28;20422;-85
2022/08/29 07:40:20;;;;;;;73.77;7.20;;;17.50;39.50;;;;;;5061965;28;20917;-85
2022/08/29 07:42:46;;;;;;;70.70;8.30;;;17.60;40.00;;;;;;5062103;28;20406;-85
2022/08/29 07:45:13;;;;;;;76.63;7.73;;;17.60;41.30;;;;;;5083460;28;20480;-84
2022/08/29 07:47:39;;;;;;;76.67;7.20;;;17.60;41.30;;;;;;5062625;28;20203;-85
2022/08/29 07:50:08;;;;;;;68.77;7.23;;;17.70;36.80;;;;;;5080175;28;20404;-85
2022/08/29 07:52:35;;;;;;;74.30;7.10;;;17.70;35.80;;;;;;5063195;28;20905;-85
2022/08/29 07:55:02;;;;;;;72.93;6.43;;;17.80;33.80;;;;;;5079796;28;20402;-85
2022/08/29 07:57:28;;;;;;;72.30;6.80;;;17.90;31.80;;;;;;5080139;28;20429;-85
2022/08/29 07:59:53;;;;;;;70.10;6.90;;;17.90;30.00;;;;;;5081029;28;20402;-85
2022/08/29 08:02:19;;;;;;;73.23;7.27;;;18.00;30.80;;;;;;5079930;28;20223;-85
2022/08/29 08:04:45;;;;;;;73.87;7.37;;;18.00;27.10;;;;;;5079260;28;20187;-85
2022/08/29 08:07:12;;;;;;;69.33;6.97;;;18.00;25.30;;;;;;5079009;28;20520;-85
2022/08/29 08:09:38;;;;;;;70.77;8.20;;;17.90;24.70;;;;;;5060363;28;20175;-85
2022/08/29 08:12:04;;;;;;;77.73;7.40;;;18.00;24.50;;;;;;5079240;28;20411;-85
2022/08/29 08:14:32;;;;;;;72.70;7.20;;;18.00;23.20;;;;;;5078460;28;20441;-85
2022/08/29 08:16:57;;;;;;;70.57;6.93;;;18.00;25.20;;;;;;5080036;28;20447;-85
2022/08/29 08:19:24;;;;;;;69.73;7.50;;;18.00;23.70;;;;;;5064771;28;20504;-85
2022/08/29 08:21:50;;;;;;;72.53;7.63;;;18.20;23.20;;;;;;5082381;28;20163;-85
2022/08/29 08:24:20;;;;;;;72.00;7.27;;;18.30;17.50;;;;;;5084076;28;20440;-85
2022/08/29 08:26:47;;;;;;;70.87;7.77;;;18.30;16.90;;;;;;5084032;28;20486;-85
2022/08/29 08:29:13;;;;;;;69.70;9.80;;;18.40;17.80;;;;;;5067608;28;20441;-85
2022/08/29 08:31:44;;;;;;;74.40;7.10;;;18.30;14.30;;;;;;5083867;28;20414;-85
2022/08/29 08:34:14;;;;;;;69.10;7.70;;;18.40;16.20;;;;;;5063565;28;20172;-85
2022/08/29 08:36:41;;;;;;;70.43;7.30;;;18.50;11.60;;;;;;5083102;28;20839;-85
2022/08/29 08:39:08;;;;;;;69.80;7.40;;;18.50;6.00;;;;;;5069375;28;20414;-85
2022/08/29 08:41:56;;;;;;;69.73;7.50;;;18.60;6.50;;;;;;5085894;28;20409;-84
2022/08/29 08:44:22;;;;;;;70.90;7.67;;;18.70;4.00;;;;;;5086098;28;20437;-85
2022/08/29 08:46:53;;;;;;;69.50;7.67;;;18.80;1.00;;;;;;5084631;28;20418;-85
2022/08/29 08:49:56;;;;;;;68.50;7.97;;;18.80;1.00;;;;;;5082691;28;20378;-85
2022/08/29 08:52:33;;;;;;;68.37;7.87;;;18.90;1.00;;;;;;5070411;28;20471;-85
2022/08/29 08:55:13;;;;;;;68.57;7.70;;;19.00;1.00;;;;;;5065234;28;20408;-85
2022/08/29 08:57:48;;;;;;;70.50;8.33;;;18.90;1.00;;;;;;5066655;28;20491;-85
2022/08/29 09:00:14;;;;;;;68.43;7.70;;;18.80;1.00;;;;;;5084398;28;20426;-85
2022/08/29 09:02:44;;;;;;;71.50;8.13;;;19.00;1.00;;;;;;5064377;28;20411;-84
2022/08/29 09:05:26;;;;;;;69.20;8.43;;;19.10;1.00;;;;;;5083024;28;20488;-85
2022/08/29 09:08:04;;;;;;;72.67;7.47;;;19.20;1.00;;;;;;5065907;28;20441;-85
2022/08/29 09:11:08;;;;;;;68.10;6.73;;;19.40;1.00;;;;;;5065727;28;20406;-85
2022/08/29 09:13:55;;;;;;;71.00;6.10;;;19.50;1.00;;;;;;5082061;28;20846;-85
2022/08/29 09:16:40;;;;;;;72.00;6.27;;;19.60;1.00;;;;;;5083583;28;20419;-85
2022/08/29 09:19:10;;;;;;;70.30;4.90;;;19.60;1.00;;;;;;5084619;28;20387;-85
2022/08/29 09:21:48;;;;;;;71.90;6.03;;;19.60;1.00;;;;;;5084417;28;20451;-85
2022/08/29 09:24:24;;;;;;;70.13;3.63;;;19.60;1.00;;;;;;5084410;28;20432;-85
2022/08/29 09:26:49;;;;;;;67.67;3.50;;;19.80;1.00;;;;;;5084328;28;20425;-84
2022/08/29 09:29:19;;;;;;;69.10;3.87;;;19.90;1.00;;;;;;5081851;28;20410;-84
2022/08/29 09:32:01;;;;;;;67.97;3.73;;;20.00;1.00;;;;;;5083523;28;20242;-84
2022/08/29 09:34:40;;;;;;;69.60;3.30;;;20.00;1.00;;;;;;5082122;28;20388;-84
2022/08/29 09:37:35;;;;;;;66.37;3.10;;;20.00;1.00;;;;;;5083450;28;20428;-84
2022/08/29 09:40:09;;;;;;;66.10;2.83;;;20.10;1.00;;;;;;5071736;28;20418;-84
2022/08/29 09:42:42;;;;;;;69.67;3.30;;;20.10;1.00;;;;;;5087444;28;20391;-84
2022/08/29 09:45:16;;;;;;;71.07;3.53;;;20.20;1.00;;;;;;5084431;28;20435;-84
2022/08/29 09:47:42;;;;;;;66.80;3.47;;;20.30;1.00;;;;;;5086035;28;20898;-84
2022/08/29 09:50:10;;;;;;;68.37;3.90;;;20.50;1.00;;;;;;5084515;28;20420;-84
2022/08/29 09:52:40;;;;;;;71.13;3.90;;;20.70;1.00;;;;;;5084917;28;20398;-84
2022/08/29 09:55:18;;;;;;;70.00;3.57;;;20.90;1.00;;;;;;5084234;28;20455;-84
2022/08/29 09:57:50;;;;;;;71.63;3.90;;;20.90;1.00;;;;;;5084576;28;20420;-84
2022/08/29 10:00:23;;;;;;;68.13;3.43;;;21.10;1.00;;;;;;5084456;28;20382;-84
2022/08/29 10:02:57;;;;;;;70.00;3.27;;;21.30;1.00;;;;;;5083602;28;20414;-84
2022/08/29 10:05:40;;;;;;;72.80;3.87;;;21.40;1.00;;;;;;5065983;28;20468;-84
2022/08/29 10:08:23;;;;;;;68.03;3.27;;;21.50;1.00;;;;;;5085855;28;20428;-84
2022/08/29 10:10:55;;;;;;;66.70;3.30;;;21.50;1.00;;;;;;5084509;28;20383;-84
2022/08/29 10:13:26;;;;;;;69.23;3.77;;;21.40;1.00;;;;;;5084122;28;20399;-84
2022/08/29 10:16:14;;;;;;;67.97;3.83;;;21.40;1.00;;;;;;5084871;28;20397;-84
2022/08/29 10:18:49;;;;;;;69.47;3.40;;;21.60;1.00;;;;;;5065669;28;20391;-84
2022/08/29 10:21:35;;;;;;;68.30;3.63;;;21.60;1.00;;;;;;5083798;28;20864;-84
2022/08/29 10:24:04;;;;;;;66.93;2.90;;;22.10;1.00;;;;;;5081536;28;20386;-84
2022/08/29 10:26:35;;;;;;;72.27;3.93;;;22.30;1.00;;;;;;5065323;28;21004;-84
2022/08/29 10:29:09;;;;;;;68.17;3.47;;;22.50;1.00;;;;;;5063846;28;20407;-84
2022/08/29 10:31:44;;;;;;;66.97;3.07;;;22.70;1.00;;;;;;5152232;22;20485;-84
2022/08/29 10:34:33;;;;;;;67.10;2.90;;;22.80;1.00;;;;;;5081990;28;20394;-84
2022/08/29 10:37:07;;;;;;;68.87;2.83;;;22.90;1.00;;;;;;5083135;28;20442;-84
2022/08/29 10:39:59;;;;;;;71.17;4.17;;;23.00;1.00;;;;;;5083107;28;20387;-83
2022/08/29 10:42:25;;;;;;;67.53;4.87;;;23.10;1.00;;;;;;5065004;28;20429;-84
2022/08/29 10:45:05;;;;;;;67.27;4.40;;;23.10;1.00;;;;;;5064730;28;20480;-83
2022/08/29 10:47:39;;;;;;;68.10;5.00;;;23.10;1.00;;;;;;5064345;28;20438;-86
2022/08/29 10:50:20;;;;;;;67.13;5.37;;;22.90;1.00;;;;;;5064489;28;20421;-84
2022/08/29 10:52:48;;;;;;;68.00;5.30;;;23.00;1.00;;;;;;5082211;28;20442;-85
2022/08/29 10:55:27;;;;;;;68.37;4.40;;;23.30;1.00;;;;;;5063461;28;20417;-85
2022/08/29 10:58:04;;;;;;;67.87;4.90;;;23.50;1.00;;;;;;5081443;28;20960;-85
2022/08/29 11:00:46;;;;;;;67.57;4.70;;;23.50;1.00;;;;;;5063461;28;20398;-85
2022/08/29 11:03:39;;;;;;;68.17;4.30;;;23.60;1.00;;;;;;5082745;28;20418;-85
2022/08/29 11:06:14;;;;;;;67.33;3.50;;;23.50;1.00;;;;;;5080910;28;20434;-85
2022/08/29 11:09:08;;;;;;;69.87;4.13;;;23.50;1.00;;;;;;5063352;28;20493;-85
2022/08/29 11:11:36;;;;;;;70.30;3.80;;;23.60;1.00;;;;;;5064486;28;20398;-85
2022/08/29 11:14:12;;;;;;;67.40;2.83;;;23.90;1.00;;;;;;5063659;28;20408;-85
2022/08/29 11:16:45;;;;;;;65.90;2.50;;;24.00;1.00;;;;;;5063759;28;20458;-85
2022/08/29 11:19:32;;;;;;;65.97;2.40;;;23.90;1.00;;;;;;5063062;28;20395;-85
2022/08/29 11:22:35;;;;;;;68.23;2.53;;;23.80;1.00;;;;;;5063049;28;20766;-85
2022/08/29 11:25:14;;;;;;;66.50;2.40;;;24.00;1.00;;;;;;5077478;28;20451;-85
2022/08/29 11:28:02;;;;;;;70.37;3.57;;;24.50;1.00;;;;;;5063193;28;20442;-84
2022/08/29 11:30:37;;;;;;;69.67;3.10;;;24.50;1.00;;;;;;5061892;28;20405;-85
2022/08/29 11:33:29;;;;;;;67.27;4.30;;;24.60;1.00;;;;;;5080841;28;20444;-85
2022/08/29 11:36:13;;;;;;;68.03;4.37;;;24.70;1.00;;;;;;5080079;28;20384;-85
2022/08/29 11:38:46;;;;;;;68.83;4.10;;;24.60;1.00;;;;;;5080619;28;20395;-85
2022/08/29 11:41:27;;;;;;;67.10;3.20;;;24.10;1.00;;;;;;5080406;28;20791;-85
2022/08/29 11:44:07;;;;;;;67.90;3.20;;;23.80;1.00;;;;;;5081547;28;20395;-85
2022/08/29 11:46:39;;;;;;;68.00;4.37;;;24.40;1.00;;;;;;5081688;28;20448;-85
2022/08/29 11:49:32;;;;;;;67.17;4.30;;;24.70;1.00;;;;;;5081083;28;20446;-85
2022/08/29 11:52:07;;;;;;;66.60;3.90;;;25.00;1.00;;;;;;5080364;28;20381;-85
2022/08/29 11:54:39;;;;;;;68.87;3.47;;;25.20;1.00;;;;;;5062970;28;20777;-85
2022/08/29 11:57:05;;;;;;;66.40;3.00;;;25.30;1.00;;;;;;5080707;28;20432;-85
2022/08/29 11:59:47;;;;;;;70.20;2.97;;;25.40;1.00;;;;;;5080547;28;20462;-85
2022/08/29 12:02:31;;;;;;;67.10;3.50;;;25.20;1.00;;;;;;5081138;28;20162;-85
2022/08/29 12:05:01;;;;;;;67.20;3.70;;;25.00;1.00;;;;;;5081675;28;20534;-85
2022/08/29 12:07:53;;;;;;;66.80;2.50;;;24.90;1.00;;;;;;5080821;28;20417;-85
2022/08/29 12:10:18;;;;;;;69.27;3.17;;;24.50;1.00;;;;;;5045373;28;20403;-85
2022/08/29 12:12:55;;;;;;;71.23;3.20;;;24.50;1.00;;;;;;5080639;28;20457;-85
2022/08/29 12:15:30;;;;;;;67.17;2.80;;;24.40;1.00;;;;;;5063382;28;20162;-85
2022/08/29 12:18:08;;;;;;;71.00;3.60;;;24.90;1.00;;;;;;5063307;28;20490;-85
2022/08/29 12:20:50;;;;;;;68.87;2.73;;;25.30;1.00;;;;;;5081408;28;20398;-83
2022/08/29 12:23:23;;;;;;;66.00;2.30;;;25.80;1.00;;;;;;5081740;28;20402;-85
2022/08/29 12:25:55;;;;;;;66.70;2.47;;;26.10;1.00;;;;;;5063001;28;20525;-85
2022/08/29 12:28:31;;;;;;;68.40;2.80;;;26.30;1.00;;;;;;5081010;28;20489;-85
2022/08/29 12:30:57;;;;;;;67.47;2.97;;;26.40;1.00;;;;;;5061879;28;20444;-85
2022/08/29 12:33:53;;;;;;;66.60;2.10;;;26.50;1.00;;;;;;5061918;28;20812;-85
2022/08/29 12:36:36;;;;;;;69.03;2.70;;;26.50;1.00;;;;;;5080371;28;20227;-85
2022/08/29 12:39:23;;;;;;;66.27;2.40;;;26.50;1.00;;;;;;5061968;28;20403;-84
2022/08/29 12:42:03;;;;;;;68.13;2.70;;;26.00;1.00;;;;;;5079285;28;20398;-84
2022/08/29 12:44:39;;;;;;;68.17;3.73;;;25.70;1.00;;;;;;5079194;28;21000;-85
2022/08/29 12:47:11;;;;;;;67.90;3.70;;;25.60;1.00;;;;;;5045880;28;20500;-85
2022/08/29 12:49:49;;;;;;;68.70;2.70;;;25.30;1.00;;;;;;5079603;28;20398;-84
2022/08/29 12:52:26;;;;;;;67.07;2.60;;;25.20;1.00;;;;;;5062150;28;20401;-84
2022/08/29 12:54:53;;;;;;;68.10;2.67;;;25.40;1.00;;;;;;5061294;28;20459;-84
2022/08/29 12:57:31;;;;;;;68.33;3.10;;;25.60;1.00;;;;;;5061600;28;20471;-84
2022/08/29 12:59:59;;;;;;;71.77;3.00;;;25.90;1.00;;;;;;5079270;28;20386;-84
2022/08/29 13:02:30;;;;;;;71.10;3.07;;;26.10;1.00;;;;;;5061786;28;20417;-84
2022/08/29 13:04:56;;;;;;;67.97;2.57;;;26.40;1.00;;;;;;5080958;28;20438;-84